Montebello, California
Current Conditions -  °F | °C
As of 6:47 AM on Wednesday 26 Nov 2014 (Local Time) from KCQT Reporting Station
Clear Clear  
Wind Chill: 56°   Ceiling: Unl
Heat Index: 56°   Visibility: 10mi
Dew Point: 23°   Wind: 0mph
Humidity: 28%   Direction: NA
Pressure: 30.22"   Gusts: NA
Location:  34.02°N, 118.11°W
Report Text: KCQT 261447Z AUTO 00000KT 10SM CLR 13/M05 A3022 RMK AO2 SLP231 T01331050 53000
Loading
Personal Weather Stations






























Interactive Weather Map New forecast layout! Learn more

10-Day Weather Forecast

Advertisements
Track Severe Weather on mobile